Click on the image to enlargeKlik op de webcam foto voor een grotere versie
Or click here
for the webcam videoo


Visit our other website:Website of another weatherstation



No particular awareness of the weather is required.    There are no Weather-warnings

Nearby Airports - METAR Reports

   
EBBR - Vaartkom-Leuven
Updated: 19-02-2019 13:20
Partly Cloudy    Wind: WSW 22 km/h
Partly Cloudy
Wind: Wind: WSW 22 km/h
Temperature: 9°C
Windchill: 6°C
Dew Point: 3°C
Humidity: 66%
Barometer: 1021 hPa
Clouds: Partly Cloudy
Visibility: More than 10 km
Cloud details: Partly Cloudy 640.1 m
EBBR 191220Z 25012KT 9999 SCT021 09/03 Q1021 NOSIG
EBAW - Antwerp
Updated: 19-02-2019 13:20
Partly Cloudy    Wind: West 24 km/h
Partly Cloudy
Wind: Wind: West 24 km/h
Temperature: 10°C
Windchill: 7°C
Dew Point: 3°C
Humidity: 62%
Barometer: 1020 hPa
Clouds: Partly Cloudy
Visibility: More than 10 km
Cloud details: Partly Cloudy 853.4 m
EBAW 191220Z 27013KT 9999 SCT028 10/03 Q1020 NOSIG
EBLG - Li├Ęge
Updated: 19-02-2019 13:20
Partly Cloudy    Wind: WSW 26 km/h
Partly Cloudy
Wind: Wind: WSW 26 km/h
Temperature: 10°C
Windchill: 7°C
Dew Point: 3°C
Humidity: 62%
Barometer: 1020 hPa
Clouds: Partly Cloudy
Visibility: More than 10 km
Cloud details: Partly Cloudy 762 m
EBLG 191220Z 25014KT 9999 SCT025 10/03 Q1020 NOSIG
EBCV - Mons/Bergen
Updated: 19-02-2019 13:25
Mostly Cloudy    Wind: WSW 20 km/h
Mostly Cloudy
Wind: Wind: WSW 20 km/h
Temperature: 9°C
Windchill: 6°C
Dew Point: 4°C
Humidity: 71%
Barometer: 1021 hPa
Clouds: Mostly Cloudy
Visibility: More than 10 km
Cloud details: Mostly Cloudy 731.5 m
EBCV 191225Z AUTO 25011KT 9999 BKN024/// 09/04 Q1021 WHT
EHBK - Maastricht
Updated: 19-02-2019 13:25
Mostly Cloudy    Wind: WSW 19 km/h
Mostly Cloudy
Wind: Wind: WSW 19 km/h
Temperature: 10°C
Windchill: 8°C
Dew Point: 3°C
Humidity: 62%
Barometer: 1020 hPa
Clouds: Mostly Cloudy
Visibility: More than 10 km
Cloud details: Mostly Cloudy 762 m,
Mostly Cloudy 914.4 m
EHBK 191225Z AUTO 24010KT 200V280 9999 BKN025 BKN030 10/03 Q1020 NOSIG
ELLX - Luxemburg
Updated: 19-02-2019 13:20
Partly Cloudy    Wind: SW 19 km/h
Partly Cloudy
Wind: Wind: SW 19 km/h
Temperature: 8°C
Windchill: 5°C
Dew Point: 2°C
Humidity: 66%
Barometer: 1021 hPa
Clouds: Partly Cloudy
Visibility: More than 10 km
Cloud details: Partly Cloudy 670.6 m
ELLX 191220Z 23010KT 9999 SCT022 08/02 Q1021 NOSIG
EBOS - Oostende
Updated: 19-02-2019 13:20
Few Clouds    Wind: West 26 km/h
Few Clouds
Wind: Wind: West 26 km/h
Temperature: 9°C
Windchill: 6°C
Dew Point: 6°C
Humidity: 82%
Barometer: 1021 hPa
Clouds: Few Clouds
Visibility: More than 10 km
Cloud details: Few Clouds 609.6 m
EBOS 191220Z 26014KT 9999 FEW020 09/06 Q1021 NOSIG
  

Script developed by  Saratoga-weather.org Adapted for the template by  Weerstation Leuven

You find our weather info also at:

UK Metoffice

WeatherCloud

European Weather Network

Weather Underground

Benelux Weather Network

AWEKAS

WeatherlinkIP

Citizen Weather Observer Program (CWOP)

HAMweather, WeatherForYou, PWS Weather

Equipment we use:

Weather-station
Davis VUE

Weather-program
Meteobridge

Weather-server
D-Link DIR-505

Provider
Robohost

Davis VUE

Meteobridge

D-Link DIR-505

Robohost